Time;durP1;ratioP1;P1;durP2;ratioP2;P2;SDS_P1;SDS_P2;PMS_P1;PMS_P2;Temp;Humidity;BMP_temperature;BMP_pressure;BME280_temperature;BME280_humidity;BME280_pressure;Samples;Min_cycle;Max_cycle;Signal;HPM_P1;HPM_P2
2021/04/27 03:00:27;;;;;;;3.92;2.10;;;;;;;2.58;100.00;100395.20;1743214;78;65226;-68
2021/04/27 03:02:57;;;;;;;4.62;2.40;;;;;;;3.21;100.00;100389.86;1786629;78;21225;-69
2021/04/27 03:05:26;;;;;;;3.50;2.08;;;;;;;3.59;100.00;100388.63;1794078;78;21064;-73
2021/04/27 03:07:54;;;;;;;4.25;2.10;;;;;;;3.79;100.00;100388.63;1747364;80;21137;-70
2021/04/27 03:10:23;;;;;;;3.75;2.08;;;;;;;3.85;100.00;100386.81;1786310;79;21586;-72
2021/04/27 03:12:51;;;;;;;3.52;2.22;;;;;;;3.97;100.00;100385.71;1748114;80;22270;-68
2021/04/27 03:15:20;;;;;;;4.55;2.42;;;;;;;4.27;100.00;100382.14;1754639;80;21602;-73
2021/04/27 03:17:49;;;;;;;3.65;2.12;;;;;;;4.67;100.00;100376.41;1784440;79;21006;-70
2021/04/27 03:20:18;;;;;;;3.95;2.35;;;;;;;5.25;100.00;100374.82;1721719;80;21156;-71
2021/04/27 03:22:50;;;;;;;3.90;2.17;;;;;;;5.97;100.00;100380.36;1783282;79;21630;-69
2021/04/27 03:25:18;;;;;;;4.33;2.17;;;;;;;6.70;100.00;100376.11;1777419;78;21433;-72
2021/04/27 03:27:48;;;;;;;4.42;2.85;;;;;;;7.40;100.00;100373.28;1783711;78;21282;-68
2021/04/27 03:30:19;;;;;;;5.17;2.60;;;;;;;8.17;100.00;100375.58;1766394;79;21111;-69
2021/04/27 03:32:49;;;;;;;4.28;2.30;;;;;;;8.83;100.00;100390.08;1787190;78;21392;-68
2021/04/27 03:35:18;;;;;;;4.43;2.03;;;;;;;9.47;100.00;100400.30;1791391;78;21146;-73
2021/04/27 03:37:47;;;;;;;3.07;1.87;;;;;;;10.05;100.00;100400.72;1784867;78;21474;-70
2021/04/27 03:40:15;;;;;;;2.70;1.77;;;;;;;11.17;100.00;100396.27;1757063;79;21876;-67
2021/04/27 03:42:44;;;;;;;6.23;2.50;;;;;;;11.17;100.00;100396.27;1787695;78;22063;-69
2021/04/27 03:45:18;;;;;;;3.00;1.60;;;;;;;11.78;100.00;100399.80;1784498;79;21780;-75
2021/04/27 03:47:47;;;;;;;3.60;2.10;;;;;;;12.44;89.39;100396.44;1778150;78;22669;-69
2021/04/27 03:50:19;;;;;;;3.60;2.20;;;;;;;12.94;79.62;100394.48;1745343;80;21340;-71
2021/04/27 03:52:48;;;;;;;3.80;2.27;;;;;;;13.36;72.30;100396.06;1753079;80;21790;-68
2021/04/27 03:55:18;;;;;;;5.07;2.10;;;;;;;13.67;63.89;100394.71;1749846;80;21111;-72
2021/04/27 03:57:47;;;;;;;4.80;2.00;;;;;;;13.92;59.19;100392.83;1758903;78;21454;-69
2021/04/27 04:00:17;;;;;;;3.87;2.20;;;;;;;14.16;55.33;100395.34;1793146;78;21612;-71
2021/04/27 04:02:47;;;;;;;4.53;1.90;;;;;;;14.48;53.53;100398.44;1785436;79;22220;-69
2021/04/27 04:05:16;;;;;;;12.03;2.83;;;;;;;14.83;51.75;100393.72;1764852;79;21300;-70
2021/04/27 04:07:45;;;;;;;10.20;3.10;;;;;;;15.28;49.29;100405.54;1770867;79;21207;-67
2021/04/27 04:10:21;;;;;;;11.47;3.20;;;;;;;15.78;47.36;100406.17;1770023;79;21938;-68
2021/04/27 04:12:49;;;;;;;8.70;2.63;;;;;;;16.25;44.37;100415.31;1770743;79;21634;-74
2021/04/27 04:15:20;;;;;;;6.63;2.27;;;;;;;16.66;42.90;100415.19;1750703;79;21853;-69
2021/04/27 04:17:50;;;;;;;8.63;2.00;;;;;;;16.94;40.75;100418.67;1770086;80;21263;-72
2021/04/27 04:20:23;;;;;;;6.77;2.50;;;;;;;17.19;40.12;100414.59;1762823;80;21261;-70
2021/04/27 04:23:24;;;;;;;3.87;2.03;;;;;;;17.75;39.01;100414.76;1823221;77;26675;-72
2021/04/27 04:25:53;;;;;;;3.90;1.77;;;;;;;18.05;38.14;100423.13;1798896;76;20939;-69
2021/04/27 04:28:22;;;;;;;3.30;2.10;;;;;;;18.32;36.55;100419.52;1767407;80;21207;-70
2021/04/27 04:30:51;;;;;;;4.23;2.30;;;;;;;18.36;36.24;100425.94;1795044;76;21670;-70
2021/04/27 04:33:38;;;;;;;3.40;2.27;;;;;;;18.54;36.03;100422.38;1802246;78;21080;-69
2021/04/27 04:36:18;;;;;;;3.65;2.20;;;;;;;18.79;35.43;100424.80;1716220;78;21128;-69
2021/04/27 04:39:06;;;;;;;4.70;2.43;;;;;;;18.99;34.90;100428.36;1757513;80;21050;-69
2021/04/27 04:41:52;;;;;;;4.13;2.50;;;;;;;18.91;34.58;100423.44;1787973;78;21538;-69
2021/04/27 04:44:39;;;;;;;5.40;2.67;;;;;;;19.03;34.39;100430.02;1767544;78;20994;-69
2021/04/27 04:47:27;;;;;;;6.27;2.10;;;;;;;19.19;34.00;100426.09;1692898;83;21414;-70
2021/04/27 04:50:13;;;;;;;6.97;3.00;;;;;;;19.38;33.57;100427.23;1822467;78;26608;-70
2021/04/27 04:53:00;;;;;;;7.33;2.77;;;;;;;19.52;33.19;100428.55;1783547;79;21083;-71
2021/04/27 04:55:34;;;;;;;5.87;2.70;;;;;;;19.76;32.57;100425.80;1774988;79;21370;-71
2021/04/27 04:58:34;;;;;;;5.70;2.80;;;;;;;19.93;32.46;100416.05;1808997;79;23831;-69
2021/04/27 05:01:04;;;;;;;8.60;2.83;;;;;;;20.13;32.31;100424.81;1717911;82;20972;-73
2021/04/27 05:03:35;;;;;;;6.62;3.02;;;;;;;20.52;31.89;100423.00;1716566;82;21383;-72
2021/04/27 05:06:19;;;;;;;7.83;3.10;;;;;;;20.77;31.13;100420.42;1717638;82;21083;-70
2021/04/27 05:09:09;;;;;;;6.70;3.00;;;;;;;20.83;30.55;100422.86;1730507;82;21041;-70
2021/04/27 05:11:45;;;;;;;5.57;2.50;;;;;;;20.84;30.79;100422.36;1725680;82;21537;-72
2021/04/27 05:14:39;;;;;;;4.37;2.35;;;;;;;21.25;30.77;100418.81;1680596;83;21453;-73
2021/04/27 05:17:12;;;;;;;2.47;1.80;;;;;;;21.90;29.73;100409.11;1722118;81;22036;-70
2021/04/27 05:19:41;;;;;;;4.12;2.30;;;;;;;22.22;28.94;100407.22;1712795;82;20987;-69
2021/04/27 05:22:10;;;;;;;6.85;2.50;;;;;;;22.23;28.38;100405.36;1700006;82;21024;-69
2021/04/27 05:24:39;;;;;;;4.80;2.35;;;;;;;22.07;28.47;100400.45;1723427;82;21205;-70
2021/04/27 05:27:09;;;;;;;3.05;2.00;;;;;;;21.90;28.22;100405.92;1696267;82;21145;-70
2021/04/27 05:29:37;;;;;;;4.35;2.35;;;;;;;21.82;28.56;100410.34;1727060;82;21207;-71
2021/04/27 05:32:06;;;;;;;5.45;2.75;;;;;;;21.86;28.13;100401.64;1708040;83;21164;-72
2021/04/27 05:34:35;;;;;;;5.50;2.27;;;;;;;21.74;28.11;100404.19;1720280;82;21082;-70
2021/04/27 05:37:03;;;;;;;5.05;2.80;;;;;;;21.46;28.10;100405.28;1708915;82;22038;-69
2021/04/27 05:39:32;;;;;;;3.25;1.98;;;;;;;21.20;28.41;100404.20;1721408;82;21207;-71
2021/04/27 05:42:00;;;;;;;6.22;2.50;;;;;;;21.12;28.79;100398.81;1677523;83;22064;-70
2021/04/27 05:44:30;;;;;;;4.47;2.30;;;;;;;21.24;28.61;100394.69;1715871;82;21118;-72
2021/04/27 05:46:58;;;;;;;4.53;2.00;;;;;;;21.30;28.40;100397.16;1706121;83;21386;-70
2021/04/27 05:49:28;;;;;;;4.20;2.23;;;;;;;21.19;28.29;100397.30;1708819;82;21552;-71
2021/04/27 05:51:56;;;;;;;4.67;2.25;;;;;;;21.05;28.33;100388.40;1714964;83;21157;-71
2021/04/27 05:54:24;;;;;;;3.80;2.20;;;;;;;20.89;28.29;100397.23;1705191;83;23624;-72
2021/04/27 05:56:53;;;;;;;5.40;2.27;;;;;;;20.75;28.21;100399.98;1701451;82;21413;-72
2021/04/27 05:59:22;;;;;;;2.72;1.70;;;;;;;20.67;28.55;100397.77;1737176;81;21173;-72
2021/04/27 06:01:50;;;;;;;3.33;2.10;;;;;;;20.68;28.27;100402.01;1750269;81;21089;-72
2021/04/27 06:04:19;;;;;;;3.37;2.00;;;;;;;20.58;28.54;100404.82;1741987;81;21188;-74
2021/04/27 06:06:47;;;;;;;4.00;2.43;;;;;;;20.51;28.35;100394.13;1699587;83;21484;-70
2021/04/27 06:09:16;;;;;;;5.40;2.57;;;;;;;20.40;28.85;100393.16;1717724;82;21148;-72
2021/04/27 06:11:47;;;;;;;2.53;1.67;;;;;;;20.47;29.07;100392.45;1718856;82;21610;-72
2021/04/27 06:14:15;;;;;;;5.27;1.53;;;;;;;20.65;27.64;100386.91;1708291;83;21140;-71
2021/04/27 06:16:43;;;;;;;4.27;1.50;;;;;;;20.73;27.21;100385.67;1737538;81;21002;-71
2021/04/27 06:19:11;;;;;;;6.57;2.07;;;;;;;20.75;26.93;100396.80;1737384;81;21164;-72
2021/04/27 06:21:41;;;;;;;6.43;2.13;;;;;;;20.59;27.08;100402.97;1747265;81;21612;-72
2021/04/27 06:24:09;;;;;;;6.00;1.90;;;;;;;20.52;27.28;100386.45;1723494;81;21158;-73
2021/04/27 06:26:37;;;;;;;3.30;1.83;;;;;;;20.45;27.33;100380.50;1748069;81;21355;-73
2021/04/27 06:29:05;;;;;;;4.20;2.00;;;;;;;20.46;27.02;100377.62;1742111;81;21509;-70
2021/04/27 06:31:34;;;;;;;4.50;1.93;;;;;;;20.45;26.65;100373.35;1745338;81;21221;-73
2021/04/27 06:34:04;;;;;;;6.17;2.10;;;;;;;20.26;27.21;100368.07;1732400;81;21149;-72
2021/04/27 06:36:33;;;;;;;3.42;1.85;;;;;;;20.10;27.60;100371.83;1731711;81;21506;-72
2021/04/27 06:39:04;;;;;;;3.20;1.87;;;;;;;20.06;27.55;100384.47;1727037;82;21113;-71
2021/04/27 06:41:32;;;;;;;3.10;1.87;;;;;;;20.04;26.51;100381.25;1726926;82;21622;-70
2021/04/27 06:44:02;;;;;;;2.50;1.50;;;;;;;19.95;26.89;100379.55;1741818;81;22331;-71
2021/04/27 06:46:31;;;;;;;6.60;2.37;;;;;;;19.98;26.71;100375.63;1730159;81;21773;-73
2021/04/27 06:49:00;;;;;;;3.67;1.50;;;;;;;19.96;27.18;100374.53;1742488;81;21240;-71
2021/04/27 06:51:29;;;;;;;3.63;1.90;;;;;;;20.07;27.10;100367.02;1737348;81;21148;-70
2021/04/27 06:53:57;;;;;;;3.10;2.07;;;;;;;20.18;26.45;100378.55;1727150;82;21627;-70
2021/04/27 06:56:26;;;;;;;5.30;1.80;;;;;;;19.83;26.58;100381.48;1704079;83;22135;-74
2021/04/27 06:58:55;;;;;;;4.47;1.90;;;;;;;19.48;26.93;100393.58;1715149;83;21177;-70
2021/04/27 07:01:25;;;;;;;3.50;1.90;;;;;;;19.09;27.06;100389.42;1705090;83;21183;-69
2021/04/27 07:03:55;;;;;;;5.20;1.87;;;;;;;18.58;27.48;100387.88;1698087;83;21616;-68
2021/04/27 07:06:23;;;;;;;2.93;2.03;;;;;;;18.33;27.44;100392.08;1713580;83;21220;-70
2021/04/27 07:08:52;;;;;;;4.37;1.93;;;;;;;18.33;27.65;100392.60;1710626;82;21268;-71
2021/04/27 07:11:21;;;;;;;4.53;2.20;;;;;;;18.71;27.45;100386.84;1716128;83;21219;-70
2021/04/27 07:13:50;;;;;;;3.70;2.03;;;;;;;19.09;26.59;100392.89;1716247;82;21074;-73
2021/04/27 07:16:20;;;;;;;9.60;3.07;;;;;;;18.96;25.93;100378.63;1710868;82;21272;-70
2021/04/27 07:18:49;;;;;;;5.53;2.67;;;;;;;18.56;26.47;100382.05;1729679;82;21572;-71
2021/04/27 07:21:20;;;;;;;3.55;1.77;;;;;;;18.45;26.35;100390.27;1710577;83;22950;-70
2021/04/27 07:23:49;;;;;;;5.33;2.27;;;;;;;18.33;26.30;100382.84;1710126;83;21177;-69
2021/04/27 07:26:18;;;;;;;7.53;2.70;;;;;;;18.23;26.11;100370.77;1707520;82;21646;-71
2021/04/27 07:28:46;;;;;;;4.97;3.20;;;;;;;17.91;26.63;100388.75;1717291;83;21755;-71
2021/04/27 07:31:15;;;;;;;5.20;2.23;;;;;;;17.69;26.85;100391.92;1733247;82;21148;-69
2021/04/27 07:33:43;;;;;;;5.10;3.67;;;;;;;17.61;27.18;100392.74;1690633;83;21466;-69
2021/04/27 07:36:14;;;;;;;7.58;4.12;;;;;;;17.48;27.33;100393.75;1735375;81;21176;-74
2021/04/27 07:38:43;;;;;;;5.03;3.70;;;;;;;16.88;28.42;100395.84;1709165;83;21470;-68
2021/04/27 07:41:11;;;;;;;6.20;4.00;;;;;;;16.34;29.79;100400.05;1690033;83;21092;-69
2021/04/27 07:43:40;;;;;;;5.23;4.10;;;;;;;15.99;30.79;100399.76;1717923;82;21579;-70
2021/04/27 07:46:08;;;;;;;6.50;3.93;;;;;;;15.91;31.58;100406.09;1713546;83;22688;-75
2021/04/27 07:48:37;;;;;;;6.73;3.70;;;;;;;16.04;30.55;100398.08;1707763;82;22562;-69
2021/04/27 07:51:06;;;;;;;4.93;3.53;;;;;;;16.03;29.99;100396.48;1730604;82;21149;-70
2021/04/27 07:53:37;;;;;;;;;;;;;;;15.94;30.54;100390.38;1714404;83;21209;-71
2021/04/27 07:56:05;;;;;;;5.27;3.37;;;;;;;15.70;30.79;100387.53;1705615;83;20414;-72
2021/04/27 07:58:34;;;;;;;5.37;3.10;;;;;;;15.44;31.47;100387.16;1700012;82;22596;-70
2021/04/27 08:01:02;;;;;;;5.27;3.10;;;;;;;15.24;31.69;100392.53;1726674;82;21679;-70
2021/04/27 08:03:31;;;;;;;5.40;2.67;;;;;;;15.10;32.03;100396.23;1725889;82;21196;-72
2021/04/27 08:06:00;;;;;;;5.13;2.23;;;;;;;15.06;32.17;100393.73;1721772;82;21466;-71
2021/04/27 08:08:30;;;;;;;6.33;2.40;;;;;;;14.91;32.55;100390.05;1733944;81;21981;-71
2021/04/27 08:10:59;;;;;;;4.17;2.53;;;;;;;14.77;32.96;100399.81;1725203;82;21201;-70
2021/04/27 08:13:27;;;;;;;4.10;2.50;;;;;;;14.65;33.07;100413.75;1703124;82;21221;-72
2021/04/27 08:15:55;;;;;;;4.03;2.23;;;;;;;14.54;33.70;100408.12;1703467;83;21217;-70
2021/04/27 08:18:24;;;;;;;4.33;2.37;;;;;;;14.54;33.79;100423.05;1702806;83;21173;-70
2021/04/27 08:20:53;;;;;;;5.13;3.03;;;;;;;14.47;33.67;100411.73;1710265;83;21658;-70
2021/04/27 08:23:22;;;;;;;5.97;2.17;;;;;;;14.25;34.28;100412.49;1707512;83;21153;-71
2021/04/27 08:25:53;;;;;;;3.98;2.37;;;;;;;14.15;34.37;100410.27;1718227;82;25060;-77
2021/04/27 08:28:22;;;;;;;3.17;1.97;;;;;;;13.94;34.47;100413.08;1709102;83;21118;-69
2021/04/27 08:30:51;;;;;;;5.00;2.30;;;;;;;13.51;34.95;100410.30;1708494;83;21667;-72
2021/04/27 08:33:20;;;;;;;4.10;2.40;;;;;;;12.70;36.80;100414.60;1731507;82;21826;-71
2021/04/27 08:35:50;;;;;;;4.07;1.80;;;;;;;12.70;36.80;100414.60;1730938;81;21558;-71
2021/04/27 08:38:19;;;;;;;3.77;2.07;;;;;;;12.40;37.52;100420.84;1717323;82;21839;-70
2021/04/27 08:40:47;;;;;;;3.43;1.80;;;;;;;11.99;39.06;100414.70;1727828;82;22836;-70
2021/04/27 08:43:16;;;;;;;5.57;3.00;;;;;;;11.93;39.65;100414.47;1720474;81;22364;-69
2021/04/27 08:45:45;;;;;;;5.20;2.60;;;;;;;11.93;39.65;100414.47;1702795;83;21946;-69
2021/04/27 08:48:14;;;;;;;4.67;2.70;;;;;;;11.96;40.42;100408.54;1735953;81;21792;-68
2021/04/27 08:50:43;;;;;;;3.30;2.13;;;;;;;11.96;40.42;100408.54;1712009;83;22489;-72
2021/04/27 08:53:12;;;;;;;3.53;1.60;;;;;;;11.96;40.09;100409.84;1702455;83;21682;-72
2021/04/27 08:55:40;;;;;;;3.30;1.80;;;;;;;11.99;40.64;100404.25;1703762;83;22009;-70
2021/04/27 08:58:11;;;;;;;3.33;1.83;;;;;;;12.52;39.84;100393.67;1734364;82;21761;-74
2021/04/27 09:00:40;;;;;;;6.92;1.82;;;;;;;12.52;39.84;100393.67;1700826;82;21960;-69
2021/04/27 09:03:09;;;;;;;5.23;1.73;;;;;;;12.74;39.35;100390.98;1714993;82;21145;-70
2021/04/27 09:05:41;;;;;;;4.93;1.90;;;;;;;12.81;38.47;100386.09;1705173;83;22074;-69
2021/04/27 09:08:11;;;;;;;4.70;1.87;;;;;;;12.81;38.47;100386.09;1704699;82;21675;-70
2021/04/27 09:10:45;;;;;;;4.10;1.60;;;;;;;12.78;39.07;100381.23;1704611;82;21618;-69
2021/04/27 09:13:17;;;;;;;3.27;1.90;;;;;;;13.19;39.28;100379.09;1700907;82;21712;-69
2021/04/27 09:15:54;;;;;;;3.85;1.47;;;;;;;13.19;39.28;100379.09;1717270;82;21826;-73
2021/04/27 09:18:34;;;;;;;4.87;1.53;;;;;;;13.49;38.71;100370.43;1726081;82;21125;-71
2021/04/27 09:21:09;;;;;;;4.42;1.45;;;;;;;13.90;38.05;100379.11;1697471;81;22398;-70
2021/04/27 09:23:40;;;;;;;3.90;1.50;;;;;;;14.39;37.45;100377.86;1738998;82;21287;-70
2021/04/27 09:26:20;;;;;;;3.17;1.37;;;;;;;14.82;35.96;100376.88;1699635;82;22297;-70
2021/04/27 09:28:53;;;;;;;15.67;3.10;;;;;;;14.93;35.13;100371.48;1700648;83;21579;-71
2021/04/27 09:31:35;;;;;;;3.60;1.63;;;;;;;14.73;35.05;100373.66;1703201;83;21086;-70
2021/04/27 09:34:31;;;;;;;3.42;1.70;;;;;;;14.39;35.18;100373.42;1698065;82;21126;-72
2021/04/27 09:37:11;;;;;;;3.10;1.47;;;;;;;13.96;35.38;100383.55;1708289;83;21248;-70
2021/04/27 09:39:43;;;;;;;3.53;1.60;;;;;;;13.52;36.24;100375.24;1711515;83;22124;-73
2021/04/27 09:42:20;;;;;;;4.10;1.90;;;;;;;13.20;36.84;100374.66;1710198;83;21937;-69
2021/04/27 09:44:54;;;;;;;3.17;1.80;;;;;;;12.91;37.61;100376.05;1723757;82;21775;-70
2021/04/27 09:47:29;;;;;;;4.03;1.60;;;;;;;12.42;38.45;100374.90;1735001;82;22283;-69
2021/04/27 09:50:11;;;;;;;4.27;1.70;;;;;;;12.42;38.45;100374.90;1736665;82;21642;-67
2021/04/27 09:52:45;;;;;;;3.43;2.07;;;;;;;11.88;40.63;100382.86;1701273;82;21716;-68
2021/04/27 09:55:17;;;;;;;3.63;2.00;;;;;;;11.88;40.63;100382.86;1707272;83;21590;-74
2021/04/27 09:57:51;;;;;;;4.12;1.70;;;;;;;11.76;41.53;100385.64;1703532;83;21623;-69
2021/04/27 10:00:33;;;;;;;2.80;1.70;;;;;;;11.69;41.90;100391.30;1711778;83;21243;-72
2021/04/27 10:03:07;;;;;;;;;;;;;;;11.62;42.01;100386.00;1711000;83;21517;-72
2021/04/27 10:05:37;;;;;;;3.63;1.60;;;;;;;11.63;42.29;100382.42;1717598;83;21926;-68
2021/04/27 10:08:06;;;;;;;4.87;1.70;;;;;;;11.62;41.17;100374.75;1699183;83;21348;-68
2021/04/27 10:10:35;;;;;;;3.20;1.60;;;;;;;11.59;41.80;100375.13;1719697;83;21846;-68
2021/04/27 10:13:08;;;;;;;7.33;1.90;;;;;;;11.66;41.94;100377.30;1730273;82;21272;-72
2021/04/27 10:15:38;;;;;;;5.97;1.90;;;;;;;11.70;41.83;100369.41;1710580;83;22355;-70
2021/04/27 10:18:09;;;;;;;3.80;1.77;;;;;;;11.76;41.91;100377.80;1695463;83;21387;-69
2021/04/27 10:20:38;;;;;;;2.83;1.52;;;;;;;11.84;41.77;100377.70;1714055;82;21762;-66
2021/04/27 10:23:09;;;;;;;3.27;1.80;;;;;;;11.99;42.00;100379.44;1710489;83;20931;-75
2021/04/27 10:25:38;;;;;;;4.10;2.20;;;;;;;12.15;40.82;100366.08;1693804;83;21470;-68
2021/04/27 10:28:08;;;;;;;3.83;2.10;;;;;;;12.25;40.84;100377.02;1713330;83;21386;-66
2021/04/27 10:30:44;;;;;;;3.67;2.12;;;;;;;12.31;40.63;100367.11;1731653;82;21491;-69
2021/04/27 10:33:21;;;;;;;4.27;2.30;;;;;;;12.26;40.68;100374.70;1712677;83;21515;-74
2021/04/27 10:36:09;;;;;;;5.70;2.33;;;;;;;12.11;41.45;100363.54;1735757;82;21432;-66
2021/04/27 10:39:00;;;;;;;4.73;2.70;;;;;;;12.11;41.45;100363.54;1727142;82;21536;-73
2021/04/27 10:41:53;;;;;;;4.93;2.70;;;;;;;12.12;42.31;100357.31;1700457;83;21516;-68
2021/04/27 10:44:22;;;;;;;5.43;2.77;;;;;;;12.25;42.41;100359.22;1698888;82;21590;-67
2021/04/27 10:46:56;;;;;;;4.92;2.87;;;;;;;12.45;41.86;100358.03;1697969;83;21533;-66
2021/04/27 10:49:31;;;;;;;7.00;2.93;;;;;;;12.59;40.83;100353.19;1699850;83;21225;-68
2021/04/27 10:52:01;;;;;;;7.60;3.47;;;;;;;12.68;41.12;100353.82;1709694;82;21566;-68
2021/04/27 10:54:39;;;;;;;6.33;3.23;;;;;;;12.75;41.30;100347.62;1728046;82;21498;-66
2021/04/27 10:57:14;;;;;;;6.33;2.93;;;;;;;12.70;40.80;100360.48;1717684;81;22040;-68
2021/04/27 10:59:54;;;;;;;8.83;4.27;;;;;;;12.51;41.05;100348.13;1704143;82;21654;-70
2021/04/27 11:02:29;;;;;;;10.78;4.65;;;;;;;12.40;41.79;100342.92;1708733;83;21463;-70
2021/04/27 11:05:01;;;;;;;7.30;3.37;;;;;;;12.41;42.40;100346.64;1730235;81;21176;-67
2021/04/27 11:07:33;;;;;;;6.50;3.00;;;;;;;12.46;43.01;100340.03;1708984;81;21439;-69
2021/04/27 11:10:10;;;;;;;3.77;2.20;;;;;;;12.46;43.01;100340.03;1740531;81;21641;-70
2021/04/27 11:12:56;;;;;;;4.33;2.27;;;;;;;12.44;42.27;100347.27;1729183;81;22053;-66
2021/04/27 11:15:31;;;;;;;7.37;2.73;;;;;;;12.11;43.54;100355.70;1741126;81;21507;-67
2021/04/27 11:18:16;;;;;;;5.43;3.43;;;;;;;12.11;43.54;100355.70;1729167;81;22233;-66
2021/04/27 11:21:04;;;;;;;4.47;2.37;;;;;;;11.97;44.91;100351.37;1721986;82;21458;-75
2021/04/27 11:23:52;;;;;;;4.83;2.37;;;;;;;11.89;45.58;100346.63;1724110;82;22080;-68
2021/04/27 11:26:38;;;;;;;5.53;2.70;;;;;;;11.87;47.56;100353.02;1731164;81;22657;-72
2021/04/27 11:29:13;;;;;;;4.70;2.30;;;;;;;11.92;47.07;100350.13;1730697;81;21870;-69
2021/04/27 11:32:06;;;;;;;4.30;2.60;;;;;;;11.98;47.87;100345.17;1720700;81;21960;-70
2021/04/27 11:37:56;;;;;;;6.67;2.90;;;;;;;11.93;50.63;100350.94;1820131;78;23124;-66
2021/04/27 11:40:42;;;;;;;4.90;2.40;;;;;;;11.76;53.45;100348.27;1796736;78;21077;-66
2021/04/27 11:43:13;;;;;;;11.23;4.57;;;;;;;11.60;57.15;100333.69;1810830;78;22740;-66
2021/04/27 11:45:46;;;;;;;11.13;5.63;;;;;;;11.52;59.00;100342.45;1802708;79;21929;-67
2021/04/27 11:48:19;;;;;;;4.87;2.87;;;;;;;11.53;60.59;100344.56;1800869;78;21200;-67
2021/04/27 11:50:48;;;;;;;4.97;2.40;;;;;;;11.56;62.09;100344.19;1794944;78;21276;-67
2021/04/27 11:53:18;;;;;;;4.73;2.47;;;;;;;11.58;61.59;100337.77;1731421;82;21843;-67
2021/04/27 11:55:53;;;;;;;5.07;2.27;;;;;;;11.64;62.08;100327.89;1771001;80;21369;-66
2021/04/27 11:58:36;;;;;;;4.90;2.60;;;;;;;11.71;62.18;100328.45;1749325;81;21382;-66
2021/04/27 12:01:06;;;;;;;4.77;2.40;;;;;;;11.76;63.13;100338.63;1744844;81;21241;-66
2021/04/27 12:03:43;;;;;;;10.93;2.83;;;;;;;11.88;63.86;100331.92;1741117;81;21234;-67
2021/04/27 12:06:17;;;;;;;5.00;2.50;;;;;;;12.02;62.95;100323.69;1737051;81;21697;-66
2021/04/27 12:08:49;;;;;;;4.67;2.90;;;;;;;12.05;62.01;100318.59;1733247;80;21196;-68
2021/04/27 12:11:21;;;;;;;5.77;2.40;;;;;;;12.14;61.83;100327.89;1709605;80;21270;-66
2021/04/27 12:13:59;;;;;;;19.40;14.77;;;;;;;12.21;60.88;100325.33;1739412;81;21505;-66
2021/04/27 12:16:33;;;;;;;13.47;5.37;;;;;;;12.21;60.81;100326.13;1734017;81;21546;-67
2021/04/27 12:19:13;;;;;;;6.60;3.23;;;;;;;12.24;58.79;100321.83;1740197;81;21181;-67
2021/04/27 12:21:45;;;;;;;5.60;2.57;;;;;;;12.31;58.48;100323.16;1742205;81;21436;-67
2021/04/27 12:24:32;;;;;;;7.53;2.47;;;;;;;12.33;57.59;100319.86;1745480;81;21850;-67
2021/04/27 12:27:13;;;;;;;4.77;2.30;;;;;;;12.31;58.83;100319.23;1737006;80;21819;-67
2021/04/27 12:32:36;;;;;;;18.93;14.43;;;;;;;12.36;53.11;100308.52;1828029;76;22906;-68
2021/04/27 12:35:18;;;;;;;15.63;12.37;;;;;;;12.07;54.04;100313.97;1794759;78;21101;-68
2021/04/27 12:38:02;;;;;;;6.47;3.87;;;;;;;12.07;54.04;100313.97;1769880;80;21364;-69
2021/04/27 12:40:37;;;;;;;9.97;8.17;;;;;;;11.84;55.92;100313.71;1753802;80;21974;-69
2021/04/27 12:43:08;;;;;;;6.90;3.30;;;;;;;11.65;58.28;100315.14;1773554;79;21305;-69
2021/04/27 12:45:52;;;;;;;8.03;4.17;;;;;;;11.54;59.66;100315.64;1780895;79;21233;-69
2021/04/27 12:48:20;;;;;;;5.63;3.10;;;;;;;11.37;62.25;100317.72;1740963;80;21323;-67
2021/04/27 12:50:53;;;;;;;7.27;3.10;;;;;;;11.24;67.94;100311.05;1763742;79;21368;-68
2021/04/27 12:53:22;;;;;;;8.63;6.20;;;;;;;11.11;71.78;100309.62;1732800;81;21344;-68
2021/04/27 12:55:53;;;;;;;5.70;3.20;;;;;;;11.00;75.33;100314.82;1697603;81;21235;-67
2021/04/27 12:58:26;;;;;;;4.40;2.83;;;;;;;11.01;75.50;100319.03;1740709;81;21912;-68
2021/04/27 13:01:02;;;;;;;5.00;2.90;;;;;;;11.01;75.92;100316.93;1744846;82;21406;-67
2021/04/27 13:03:35;;;;;;;7.70;3.50;;;;;;;11.02;76.72;100320.64;1752714;79;21488;-68
2021/04/27 13:06:23;;;;;;;;;;;;;;;11.03;75.68;100314.96;1761446;80;21239;-68
2021/04/27 13:09:11;;;;;;;9.77;2.97;;;;;;;11.03;75.74;100317.56;1764823;79;20417;-68
2021/04/27 13:11:56;;;;;;;5.00;2.53;;;;;;;11.08;74.96;100302.16;1761905;79;21348;-68
2021/04/27 13:14:36;;;;;;;5.00;2.80;;;;;;;11.11;74.13;100313.03;1717094;79;21751;-69
2021/04/27 13:17:07;;;;;;;8.47;3.10;;;;;;;11.11;73.78;100315.64;1739030;81;21498;-69
2021/04/27 13:20:11;;;;;;;4.73;2.57;;;;;;;11.09;73.94;100304.57;1720279;82;21303;-69
2021/04/27 13:22:40;;;;;;;8.47;4.40;;;;;;;11.09;74.20;100311.59;1732530;80;21456;-69
2021/04/27 13:25:15;;;;;;;3.97;2.17;;;;;;;11.18;76.08;100305.28;1742923;79;21420;-68
2021/04/27 13:27:48;;;;;;;9.23;4.60;;;;;;;11.23;74.13;100315.96;1753724;80;21781;-67
2021/04/27 13:30:24;;;;;;;10.73;5.47;;;;;;;11.26;75.44;100314.29;1729309;81;21360;-67
2021/04/27 13:33:05;;;;;;;6.73;3.40;;;;;;;11.25;72.77;100308.77;1765527;80;21260;-67
2021/04/27 13:35:38;;;;;;;5.40;2.60;;;;;;;11.25;73.88;100307.94;1737964;81;22629;-67
2021/04/27 13:38:09;;;;;;;5.40;2.20;;;;;;;11.14;72.37;100314.48;1737516;80;21608;-67
2021/04/27 13:40:38;;;;;;;4.10;2.40;;;;;;;10.98;73.57;100315.48;1724987;80;21371;-67
2021/04/27 13:43:14;;;;;;;6.37;2.70;;;;;;;10.89;76.21;100313.99;1796388;79;21205;-66
2021/04/27 13:45:43;;;;;;;6.17;2.60;;;;;;;10.87;77.53;100316.80;1796194;79;21458;-69
2021/04/27 13:48:12;;;;;;;7.00;2.57;;;;;;;10.82;77.07;100302.17;1714153;80;21665;-67
2021/04/27 13:50:44;;;;;;;11.70;2.90;;;;;;;10.78;78.00;100302.23;1728238;82;21824;-66
2021/04/27 13:53:13;;;;;;;5.27;2.73;;;;;;;10.76;80.06;100295.57;1769107;80;21272;-66
2021/04/27 13:55:42;;;;;;;5.53;2.20;;;;;;;10.80;79.85;100298.95;1758230;78;21468;-68
2021/04/27 13:58:11;;;;;;;3.83;2.10;;;;;;;10.77;79.86;100304.53;1755884;79;21873;-67
2021/04/27 14:00:40;;;;;;;6.03;2.10;;;;;;;10.70;81.73;100306.25;1751936;80;21551;-67
2021/04/27 14:03:08;;;;;;;6.27;3.07;;;;;;;10.67;81.55;100307.91;1792850;78;21292;-67
2021/04/27 14:05:38;;;;;;;7.27;3.40;;;;;;;10.62;82.92;100307.16;1791431;79;21975;-68
2021/04/27 14:08:08;;;;;;;7.10;5.20;;;;;;;10.58;83.94;100305.11;1794312;79;21317;-67
2021/04/27 14:10:37;;;;;;;7.37;5.73;;;;;;;10.51;87.30;100310.73;1760248;80;21518;-67
2021/04/27 14:13:05;;;;;;;6.60;3.53;;;;;;;10.39;93.86;100313.78;1806521;78;21911;-67
2021/04/27 14:15:38;;;;;;;4.50;2.30;;;;;;;10.31;99.06;100321.70;1772035;80;21149;-68
2021/04/27 14:18:07;;;;;;;5.83;3.00;;;;;;;10.17;100.00;100315.95;1739959;81;21808;-67
2021/04/27 14:20:36;;;;;;;9.10;5.20;;;;;;;9.96;100.00;100318.77;1755897;80;21284;-67
2021/04/27 14:23:08;;;;;;;5.67;3.10;;;;;;;9.72;100.00;100321.57;1752264;81;21386;-67
2021/04/27 14:25:36;;;;;;;6.75;3.47;;;;;;;9.50;100.00;100320.60;1757264;80;21848;-67
2021/04/27 14:28:05;;;;;;;6.30;3.35;;;;;;;9.32;100.00;100322.21;1776808;79;22547;-67
2021/04/27 14:30:33;;;;;;;8.10;4.20;;;;;;;9.20;100.00;100314.47;1734532;81;21542;-67
2021/04/27 14:33:01;;;;;;;5.55;3.58;;;;;;;9.10;100.00;100312.11;1807769;79;21580;-66
2021/04/27 14:35:32;;;;;;;7.60;4.20;;;;;;;8.98;100.00;100312.98;1757565;80;21194;-68
2021/04/27 14:38:02;;;;;;;9.35;4.92;;;;;;;8.85;100.00;100315.81;1729920;80;21179;-70
2021/04/27 14:40:31;;;;;;;9.85;5.05;;;;;;;8.70;100.00;100319.12;1731620;81;21649;-68
2021/04/27 14:43:02;;;;;;;9.15;4.80;;;;;;;8.57;100.00;100318.86;1731547;80;21077;-66
2021/04/27 14:45:30;;;;;;;7.87;4.40;;;;;;;8.43;100.00;100320.36;1752788;80;22192;-66
2021/04/27 14:47:59;;;;;;;9.68;4.78;;;;;;;8.32;100.00;100319.88;1747303;79;21166;-69
2021/04/27 14:50:29;;;;;;;5.72;4.15;;;;;;;8.18;100.00;100316.17;1751188;79;21419;-67
2021/04/27 14:52:58;;;;;;;8.85;6.05;;;;;;;8.05;100.00;100313.60;1785273;77;21152;-69
2021/04/27 14:55:27;;;;;;;8.28;5.85;;;;;;;7.92;100.00;100317.20;1783930;79;21115;-68